»·PEaware :: N91DM KBUR-KLAS

N91DM :: KBUR-KLAS

FLIGHT INFORMATION

Flight Status: Arrived
Operator: Privately registered:
United States
More flights under this callsign
Pilot: Jeff L. (31878)
Aircraft: CIRRUS SR-22
(SR22)
More flights by this aircraft type
Origin: KBUR Bob Hope-Burbank
United States
Destination: KLAS McCarran Intl
United States
More flights between these airports :: More routes between these airports
Route: +VNY3 DAG CRESO4
File this flight plan on PilotEdge
Remarks:
Altitude:
(Current/Filed)
11,000ft
Speed:
(Current/Filed)
150kts
Departed: 15-Nov-20 01:19 PM
Arrived: 15-Nov-20 02:53 PM
Distance/Time
Traveled:
194nm/1:33
Distance/Time
To Go:
Arrived

Flight Plot

Page will automatically refresh every two minutes.

Flight plan parsing failed; only flown route is shown


Map Options




Map Legend


Flown Route
Filed Route
Departure Airport
Arrival Airport
Navaid (VOR, NDB)
Fix

Horizontal Profiles

Position Reports

Time Latitude Longitude Heading Altitude Ground
Speed
15-Nov-20 12:56 34.199558 -118.361467 359 737ft 0kts
15-Nov-20 12:57 34.199558 -118.361467 359 737ft 0kts
15-Nov-20 12:58 34.199558 -118.361467 359 737ft 0kts
15-Nov-20 12:59 34.199558 -118.361467 359 737ft 0kts
15-Nov-20 13:00 34.199558 -118.361467 359 737ft 0kts
15-Nov-20 13:01 34.199558 -118.361467 359 737ft 0kts
15-Nov-20 13:02 34.199558 -118.361467 359 737ft 0kts
15-Nov-20 13:03 34.199558 -118.361467 359 737ft 0kts
15-Nov-20 13:04 34.199558 -118.361467 359 737ft 0kts
15-Nov-20 13:05 34.199558 -118.361467 359 737ft 0kts
15-Nov-20 13:06 34.199558 -118.361467 359 737ft 0kts
15-Nov-20 13:07 34.199558 -118.361467 359 737ft 0kts
15-Nov-20 13:08 34.199558 -118.361467 359 737ft 0kts
15-Nov-20 13:09 34.199558 -118.361467 0 737ft 0kts
15-Nov-20 13:10 34.199558 -118.361467 359 737ft 0kts
15-Nov-20 13:11 34.199558 -118.361467 359 737ft 0kts
15-Nov-20 13:12 34.199336 -118.360341 132 737ft 5kts
15-Nov-20 13:13 34.198918 -118.362823 271 737ft 13kts
15-Nov-20 13:14 34.199132 -118.368387 269 737ft 15kts
15-Nov-20 13:15 34.198708 -118.368982 180 737ft 0kts
15-Nov-20 13:16 34.198708 -118.368982 180 737ft 0kts
15-Nov-20 13:17 34.198692 -118.368982 179 737ft 1kts
15-Nov-20 13:18 34.197814 -118.355163 91 875ft 88kts
15-Nov-20 13:19 34.189054 -118.328064 165 1962ft 92kts
15-Nov-20 13:20 34.169532 -118.345176 225 2913ft 107kts
15-Nov-20 13:21 34.148383 -118.370310 225 4021ft 112kts
15-Nov-20 13:22 34.162030 -118.393148 338 5094ft 108kts
15-Nov-20 13:23 34.188835 -118.407817 335 6179ft 103kts
15-Nov-20 13:24 34.214643 -118.424155 333 7118ft 105kts
15-Nov-20 13:25 34.241467 -118.438241 352 7991ft 106kts
15-Nov-20 13:26 34.271281 -118.441247 354 8806ft 108kts
15-Nov-20 13:27 34.301362 -118.446162 352 9564ft 110kts
15-Nov-20 13:28 34.329059 -118.432713 32 10294ft 110kts
15-Nov-20 13:29 34.353334 -118.411195 26 10770ft 106kts
15-Nov-20 13:30 34.383325 -118.389002 24 11007ft 142kts
15-Nov-20 13:31 34.419654 -118.364224 26 11004ft 151kts
15-Nov-20 13:32 34.454328 -118.337231 28 10986ft 145kts
15-Nov-20 13:33 34.481557 -118.302234 51 10989ft 147kts
15-Nov-20 13:34 34.507016 -118.262926 48 10855ft 148kts
15-Nov-20 13:35 34.531767 -118.223653 47 10857ft 145kts
15-Nov-20 13:36 34.555967 -118.184874 46 10848ft 145kts
15-Nov-20 13:37 34.580952 -118.144767 46 10862ft 151kts
15-Nov-20 13:38 34.606359 -118.104009 46 10900ft 149kts
15-Nov-20 13:39 34.630279 -118.062770 60 10970ft 154kts
15-Nov-20 13:40 34.637048 -118.009665 71 10973ft 160kts
15-Nov-20 13:41 34.643274 -117.955360 74 10973ft 163kts
15-Nov-20 13:42 34.649326 -117.900598 75 10973ft 163kts
15-Nov-20 13:43 34.655242 -117.845886 82 10972ft 162kts
15-Nov-20 13:44 34.661139 -117.791468 83 10974ft 162kts
15-Nov-20 13:45 34.670862 -117.738213 69 10973ft 162kts
15-Nov-20 13:46 34.684011 -117.686132 72 10973ft 160kts
15-Nov-20 13:47 34.697211 -117.634569 73 10973ft 160kts
15-Nov-20 13:48 34.710448 -117.582936 73 10974ft 160kts
15-Nov-20 13:49 34.723688 -117.531143 73 10974ft 160kts
15-Nov-20 13:50 34.736843 -117.479555 73 10973ft 160kts
15-Nov-20 13:51 34.749992 -117.427883 73 10973ft 160kts
15-Nov-20 13:52 34.763118 -117.376184 73 10974ft 160kts
15-Nov-20 13:53 34.776226 -117.324466 73 10974ft 160kts
15-Nov-20 13:54 34.789314 -117.272712 73 10973ft 160kts
15-Nov-20 13:55 34.802390 -117.220904 73 10973ft 160kts
15-Nov-20 13:56 34.815436 -117.169119 73 10973ft 159kts
15-Nov-20 13:57 34.828448 -117.117379 73 10973ft 160kts
15-Nov-20 13:58 34.841414 -117.065703 74 10973ft 160kts
15-Nov-20 13:59 34.854418 -117.013774 73 10980ft 159kts
15-Nov-20 14:00 34.867340 -116.962059 73 10987ft 159kts
15-Nov-20 14:01 34.880247 -116.910304 73 10992ft 159kts
15-Nov-20 14:02 34.893150 -116.858468 74 10992ft 160kts
15-Nov-20 14:03 34.906033 -116.806585 73 10992ft 160kts
15-Nov-20 14:04 34.918930 -116.754559 73 10992ft 160kts
15-Nov-20 14:05 34.931849 -116.702344 73 10992ft 160kts
15-Nov-20 14:07 34.944754 -116.650071 73 10992ft 160kts
15-Nov-20 14:08 34.957578 -116.598009 73 10992ft 160kts
15-Nov-20 14:09 34.976222 -116.548624 59 10967ft 161kts
15-Nov-20 14:10 34.997179 -116.500347 61 10963ft 161kts
15-Nov-20 14:11 35.018445 -116.452257 61 10963ft 160kts
15-Nov-20 14:12 35.039699 -116.404310 61 10963ft 160kts
15-Nov-20 14:13 35.060943 -116.356388 61 10963ft 160kts
15-Nov-20 14:14 35.082480 -116.307701 60 10993ft 165kts
15-Nov-20 14:15 35.104238 -116.258485 59 10991ft 163kts
15-Nov-20 14:16 35.125859 -116.209488 59 10992ft 164kts
15-Nov-20 14:17 35.147509 -116.160339 59 10991ft 163kts
15-Nov-20 14:18 35.169014 -116.111459 59 10986ft 162kts
15-Nov-20 14:19 35.190383 -116.062800 60 10993ft 163kts
15-Nov-20 14:20 35.211876 -116.013794 60 10992ft 163kts
15-Nov-20 14:21 35.233327 -115.964809 59 10992ft 163kts
15-Nov-20 14:22 35.254790 -115.915724 60 10992ft 163kts
15-Nov-20 14:23 35.276241 -115.866605 60 10993ft 164kts
15-Nov-20 14:24 35.297722 -115.817360 60 11016ft 164kts
15-Nov-20 14:25 35.322384 -115.770602 40 11022ft 163kts
15-Nov-20 14:26 35.353347 -115.729840 43 11025ft 162kts
15-Nov-20 14:26 35.379537 -115.695104 45 10795ft 169kts
15-Nov-20 14:27 35.410982 -115.653291 45 10478ft 165kts
15-Nov-20 14:28 35.441961 -115.611924 45 10181ft 164kts
15-Nov-20 14:29 35.472821 -115.570642 45 10043ft 162kts
15-Nov-20 14:30 35.502889 -115.530380 45 10033ft 158kts
15-Nov-20 14:31 35.532481 -115.490712 45 10028ft 157kts
15-Nov-20 14:32 35.562066 -115.451010 43 9899ft 162kts
15-Nov-20 14:33 35.594224 -115.407802 47 9499ft 178kts
15-Nov-20 14:34 35.628149 -115.362180 52 9100ft 178kts
15-Nov-20 14:35 35.660169 -115.319052 53 8692ft 161kts
15-Nov-20 14:36 35.688969 -115.280153 47 8298ft 149kts
15-Nov-20 14:37 35.716541 -115.242959 45 8051ft 142kts
15-Nov-20 14:38 35.742634 -115.207706 45 8031ft 137kts
15-Nov-20 14:39 35.767919 -115.173475 45 8027ft 132kts
15-Nov-20 14:40 35.798771 -115.152257 7 8024ft 132kts
15-Nov-20 14:41 35.835936 -115.145705 12 8031ft 137kts
15-Nov-20 14:42 35.872507 -115.136208 13 8028ft 133kts
15-Nov-20 14:43 35.909792 -115.125647 14 7778ft 145kts
15-Nov-20 14:44 35.949467 -115.114109 14 7253ft 146kts
15-Nov-20 14:45 35.989123 -115.102620 14 6756ft 146kts
15-Nov-20 14:46 36.028867 -115.091647 11 6257ft 146kts
15-Nov-20 14:47 36.069166 -115.083242 11 5750ft 146kts
15-Nov-20 14:48 36.108585 -115.075732 358 4631ft 134kts
15-Nov-20 14:49 36.135055 -115.101986 305 3629ft 125kts
15-Nov-20 14:50 36.130467 -115.137922 217 3013ft 111kts
15-Nov-20 14:51 36.106503 -115.152493 202 2344ft 80kts
15-Nov-20 14:52 36.090970 -115.161469 203 2130ft 29kts
15-Nov-20 14:53 36.089425 -115.163436 322 2143ft 0kts
15-Nov-20 14:54 36.090578 -115.164066 24 2136ft 18kts
15-Nov-20 14:55 36.096976 -115.160400 25 2103ft 23kts
15-Nov-20 14:56 36.098796 -115.159995 113 2098ft 0kts
15-Nov-20 14:57 36.098796 -115.159995 113 2098ft 0kts

Navigation Log

Ident Type
Flight plan parsing failed, navigation log unavailable